sensor_id;sensor_type;location;lat;lon;timestamp;pressure;altitude;pressure_sealevel;temperature;humidity
3544;BME280;1786;52.870;9.578;2022-10-29T00:02:04;101092.66;;;30.08;48.67
3544;BME280;1786;52.870;9.578;2022-10-29T00:04:31;101093.34;;;29.70;49.93
3544;BME280;1786;52.870;9.578;2022-10-29T00:06:58;101094.75;;;30.06;49.37
3544;BME280;1786;52.870;9.578;2022-10-29T00:09:24;101100.25;;;29.59;49.74
3544;BME280;1786;52.870;9.578;2022-10-29T00:11:51;101107.16;;;29.88;49.18
3544;BME280;1786;52.870;9.578;2022-10-29T00:14:18;101104.38;;;30.15;48.73
3544;BME280;1786;52.870;9.578;2022-10-29T00:16:44;101105.63;;;30.26;48.92
3544;BME280;1786;52.870;9.578;2022-10-29T00:19:11;101102.47;;;30.29;48.79
3544;BME280;1786;52.870;9.578;2022-10-29T00:21:37;101109.78;;;30.41;48.58
3544;BME280;1786;52.870;9.578;2022-10-29T00:24:08;101109.44;;;30.25;48.79
3544;BME280;1786;52.870;9.578;2022-10-29T00:26:34;101120.38;;;29.85;49.14
3544;BME280;1786;52.870;9.578;2022-10-29T00:29:01;101122.03;;;29.46;49.52
3544;BME280;1786;52.870;9.578;2022-10-29T00:31:28;101118.72;;;29.70;49.18
3544;BME280;1786;52.870;9.578;2022-10-29T00:33:54;101114.94;;;29.71;49.60
3544;BME280;1786;52.870;9.578;2022-10-29T00:36:24;101111.75;;;30.01;48.73
3544;BME280;1786;52.870;9.578;2022-10-29T00:38:52;101118.28;;;29.73;49.48
3544;BME280;1786;52.870;9.578;2022-10-29T00:46:15;101124.78;;;29.72;49.50
3544;BME280;1786;52.870;9.578;2022-10-29T00:48:48;101126.66;;;29.79;48.75
3544;BME280;1786;52.870;9.578;2022-10-29T00:51:16;101130.44;;;29.64;49.11
3544;BME280;1786;52.870;9.578;2022-10-29T00:53:51;101126.66;;;29.79;49.12
3544;BME280;1786;52.870;9.578;2022-10-29T00:56:20;101124.97;;;29.91;48.51
3544;BME280;1786;52.870;9.578;2022-10-29T00:58:48;101127.91;;;29.83;48.63
3544;BME280;1786;52.870;9.578;2022-10-29T01:01:14;101133.81;;;29.86;48.31
3544;BME280;1786;52.870;9.578;2022-10-29T01:03:41;101136.31;;;29.74;48.91
3544;BME280;1786;52.870;9.578;2022-10-29T01:06:08;101129.59;;;29.70;48.83
3544;BME280;1786;52.870;9.578;2022-10-29T01:08:35;101132.53;;;29.75;49.38
3544;BME280;1786;52.870;9.578;2022-10-29T01:13:47;101137.75;;;29.90;48.49
3544;BME280;1786;52.870;9.578;2022-10-29T01:27:15;101130.81;;;29.48;49.99
3544;BME280;1786;52.870;9.578;2022-10-29T01:30:08;101139.25;;;29.80;49.73
3544;BME280;1786;52.870;9.578;2022-10-29T01:32:40;101135.25;;;29.75;49.70
3544;BME280;1786;52.870;9.578;2022-10-29T01:35:27;101134.00;;;29.78;49.38
3544;BME280;1786;52.870;9.578;2022-10-29T01:41:02;101132.75;;;29.81;49.95
3544;BME280;1786;52.870;9.578;2022-10-29T01:46:13;101142.59;;;30.02;49.52
3544;BME280;1786;52.870;9.578;2022-10-29T01:48:44;101147.19;;;29.94;48.88
3544;BME280;1786;52.870;9.578;2022-10-29T01:51:27;101150.97;;;30.07;49.40
3544;BME280;1786;52.870;9.578;2022-10-29T01:53:58;101151.38;;;30.04;49.39
3544;BME280;1786;52.870;9.578;2022-10-29T01:56:25;101159.09;;;30.13;49.33
3544;BME280;1786;52.870;9.578;2022-10-29T01:58:54;101150.75;;;29.88;49.74
3544;BME280;1786;52.870;9.578;2022-10-29T02:04:26;101158.94;;;29.95;49.06
3544;BME280;1786;52.870;9.578;2022-10-29T02:07:12;101162.47;;;30.09;49.43
3544;BME280;1786;52.870;9.578;2022-10-29T02:17:46;101165.63;;;30.12;48.72
3544;BME280;1786;52.870;9.578;2022-10-29T02:20:14;101143.66;;;29.74;49.83
3544;BME280;1786;52.870;9.578;2022-10-29T02:22:40;101135.88;;;29.91;48.97
3544;BME280;1786;52.870;9.578;2022-10-29T02:25:08;101134.81;;;30.12;48.69
3544;BME280;1786;52.870;9.578;2022-10-29T02:27:35;101131.03;;;30.06;48.62
3544;BME280;1786;52.870;9.578;2022-10-29T02:30:03;101126.56;;;30.45;47.90
3544;BME280;1786;52.870;9.578;2022-10-29T02:32:29;101127.81;;;30.43;47.70
3544;BME280;1786;52.870;9.578;2022-10-29T02:34:59;101130.63;;;30.09;48.42
3544;BME280;1786;52.870;9.578;2022-10-29T02:37:26;101115.47;;;30.33;48.22
3544;BME280;1786;52.870;9.578;2022-10-29T02:39:54;101104.16;;;30.23;48.54
3544;BME280;1786;52.870;9.578;2022-10-29T02:42:20;101103.09;;;30.31;47.74
3544;BME280;1786;52.870;9.578;2022-10-29T02:44:48;101110.66;;;30.15;48.21
3544;BME280;1786;52.870;9.578;2022-10-29T02:47:15;101127.06;;;30.02;47.87
3544;BME280;1786;52.870;9.578;2022-10-29T02:49:41;101123.91;;;30.12;47.57
3544;BME280;1786;52.870;9.578;2022-10-29T02:52:08;101119.09;;;30.07;47.96
3544;BME280;1786;52.870;9.578;2022-10-29T02:54:35;101111.09;;;30.12;47.82
3544;BME280;1786;52.870;9.578;2022-10-29T02:57:02;101125.63;;;29.80;47.73
3544;BME280;1786;52.870;9.578;2022-10-29T02:59:28;101118.25;;;29.60;48.43
3544;BME280;1786;52.870;9.578;2022-10-29T03:01:55;101134.22;;;29.76;48.39
3544;BME280;1786;52.870;9.578;2022-10-29T03:04:22;101122.50;;;29.69;48.43
3544;BME280;1786;52.870;9.578;2022-10-29T03:06:48;101121.84;;;29.67;48.42
3544;BME280;1786;52.870;9.578;2022-10-29T03:09:15;101109.88;;;29.55;47.96
3544;BME280;1786;52.870;9.578;2022-10-29T03:11:41;101106.97;;;29.70;48.07
3544;BME280;1786;52.870;9.578;2022-10-29T03:14:08;101108.22;;;29.54;47.68
3544;BME280;1786;52.870;9.578;2022-10-29T03:16:35;101101.50;;;29.37;48.36
3544;BME280;1786;52.870;9.578;2022-10-29T03:19:02;101100.25;;;29.39;48.37
3544;BME280;1786;52.870;9.578;2022-10-29T03:21:28;101101.50;;;29.63;47.02
3544;BME280;1786;52.870;9.578;2022-10-29T03:23:55;101107.78;;;29.57;47.17
3544;BME280;1786;52.870;9.578;2022-10-29T03:26:22;101102.78;;;29.54;47.54
3544;BME280;1786;52.870;9.578;2022-10-29T03:28:48;101104.47;;;29.82;47.17
3544;BME280;1786;52.870;9.578;2022-10-29T03:31:15;101110.50;;;29.90;46.59
3544;BME280;1786;52.870;9.578;2022-10-29T03:33:41;101110.31;;;29.92;47.06
3544;BME280;1786;52.870;9.578;2022-10-29T03:36:08;101115.53;;;30.00;46.07
3544;BME280;1786;52.870;9.578;2022-10-29T03:38:35;101111.34;;;29.91;46.47
3544;BME280;1786;52.870;9.578;2022-10-29T03:41:01;101110.13;;;29.87;46.26
3544;BME280;1786;52.870;9.578;2022-10-29T03:43:35;101091.47;;;29.84;46.90
3544;BME280;1786;52.870;9.578;2022-10-29T03:46:02;101090.22;;;29.80;47.02
3544;BME280;1786;52.870;9.578;2022-10-29T03:48:29;101087.06;;;29.76;46.71
3544;BME280;1786;52.870;9.578;2022-10-29T03:51:00;101077.63;;;29.59;47.36
3544;BME280;1786;52.870;9.578;2022-10-29T03:53:28;101078.88;;;29.63;47.25
3544;BME280;1786;52.870;9.578;2022-10-29T03:55:55;101089.34;;;29.52;47.23
3544;BME280;1786;52.870;9.578;2022-10-29T03:58:23;101087.47;;;29.53;47.17
3544;BME280;1786;52.870;9.578;2022-10-29T04:01:01;101100.25;;;29.46;47.54
3544;BME280;1786;52.870;9.578;2022-10-29T04:03:29;101107.38;;;29.33;46.87
3544;BME280;1786;52.870;9.578;2022-10-29T04:05:58;101096.88;;;29.30;46.80
3544;BME280;1786;52.870;9.578;2022-10-29T04:08:24;101093.13;;;29.45;46.67
3544;BME280;1786;52.870;9.578;2022-10-29T04:10:51;101101.94;;;29.47;46.12
3544;BME280;1786;52.870;9.578;2022-10-29T04:13:19;101101.09;;;29.46;46.44
3544;BME280;1786;52.870;9.578;2022-10-29T04:15:46;101109.25;;;29.40;46.14
3544;BME280;1786;52.870;9.578;2022-10-29T04:18:13;101114.91;;;29.31;46.46
3544;BME280;1786;52.870;9.578;2022-10-29T04:20:40;101109.91;;;29.42;45.81
3544;BME280;1786;52.870;9.578;2022-10-29T04:23:27;101121.88;;;28.79;47.29
3544;BME280;1786;52.870;9.578;2022-10-29T04:26:14;101117.22;;;28.66;46.96
3544;BME280;1786;52.870;9.578;2022-10-29T04:29:01;101110.88;;;28.46;47.71
3544;BME280;1786;52.870;9.578;2022-10-29T04:31:28;101116.09;;;28.47;46.93
3544;BME280;1786;52.870;9.578;2022-10-29T04:33:54;101113.13;;;28.42;46.84
3544;BME280;1786;52.870;9.578;2022-10-29T04:36:21;101118.81;;;28.47;47.14
3544;BME280;1786;52.870;9.578;2022-10-29T04:38:49;101125.88;;;28.35;46.78
3544;BME280;1786;52.870;9.578;2022-10-29T04:41:15;101123.94;;;28.29;47.32
3544;BME280;1786;52.870;9.578;2022-10-29T04:43:42;101127.06;;;28.26;46.61
3544;BME280;1786;52.870;9.578;2022-10-29T04:46:10;101112.81;;;28.17;46.84
3544;BME280;1786;52.870;9.578;2022-10-29T04:48:36;101107.75;;;28.14;46.92
3544;BME280;1786;52.870;9.578;2022-10-29T04:51:04;101107.31;;;28.11;46.75
3544;BME280;1786;52.870;9.578;2022-10-29T04:53:30;101118.13;;;28.04;46.77
3544;BME280;1786;52.870;9.578;2022-10-29T04:55:59;101119.84;;;28.05;46.73
3544;BME280;1786;52.870;9.578;2022-10-29T04:58:26;101118.06;;;27.91;47.52
3544;BME280;1786;52.870;9.578;2022-10-29T05:00:57;101123.22;;;27.57;48.02
3544;BME280;1786;52.870;9.578;2022-10-29T05:03:25;101129.72;;;27.41;48.15
3544;BME280;1786;52.870;9.578;2022-10-29T05:05:52;101124.38;;;27.48;47.83
3544;BME280;1786;52.870;9.578;2022-10-29T05:08:19;101104.44;;;27.62;47.69
3544;BME280;1786;52.870;9.578;2022-10-29T05:10:46;101092.28;;;27.58;47.90
3544;BME280;1786;52.870;9.578;2022-10-29T05:13:13;101094.56;;;27.12;48.71
3544;BME280;1786;52.870;9.578;2022-10-29T05:15:40;101083.38;;;27.00;49.55
3544;BME280;1786;52.870;9.578;2022-10-29T05:18:08;101094.25;;;27.00;50.08
3544;BME280;1786;52.870;9.578;2022-10-29T05:20:35;101083.97;;;27.17;49.49
3544;BME280;1786;52.870;9.578;2022-10-29T05:23:06;101091.78;;;27.48;49.20
3544;BME280;1786;52.870;9.578;2022-10-29T05:25:36;101093.81;;;27.39;49.00
3544;BME280;1786;52.870;9.578;2022-10-29T05:28:04;101092.09;;;27.32;48.96
3544;BME280;1786;52.870;9.578;2022-10-29T05:30:32;101101.56;;;27.21;49.18
3544;BME280;1786;52.870;9.578;2022-10-29T05:32:59;101109.75;;;27.49;48.83
3544;BME280;1786;52.870;9.578;2022-10-29T05:35:26;101105.13;;;27.43;48.65
3544;BME280;1786;52.870;9.578;2022-10-29T05:37:54;101116.81;;;27.44;48.74
3544;BME280;1786;52.870;9.578;2022-10-29T05:40:22;101113.44;;;27.41;48.75
3544;BME280;1786;52.870;9.578;2022-10-29T05:42:49;101109.72;;;27.06;49.13
3544;BME280;1786;52.870;9.578;2022-10-29T05:45:16;101105.44;;;26.75;49.64
3544;BME280;1786;52.870;9.578;2022-10-29T05:47:43;101116.84;;;27.07;48.89
3544;BME280;1786;52.870;9.578;2022-10-29T05:50:10;101126.53;;;27.16;49.12
3544;BME280;1786;52.870;9.578;2022-10-29T05:52:38;101127.22;;;27.18;48.62
3544;BME280;1786;52.870;9.578;2022-10-29T05:55:05;101130.41;;;27.22;48.15
3544;BME280;1786;52.870;9.578;2022-10-29T05:57:32;101131.31;;;27.29;48.44
3544;BME280;1786;52.870;9.578;2022-10-29T05:59:58;101132.16;;;27.30;47.84
3544;BME280;1786;52.870;9.578;2022-10-29T06:02:25;101131.50;;;27.28;48.15
3544;BME280;1786;52.870;9.578;2022-10-29T06:04:52;101133.56;;;27.26;47.72
3544;BME280;1786;52.870;9.578;2022-10-29T06:07:18;101135.03;;;27.28;47.95
3544;BME280;1786;52.870;9.578;2022-10-29T06:09:45;101140.88;;;27.10;47.78
3544;BME280;1786;52.870;9.578;2022-10-29T06:12:11;101139.47;;;27.14;47.86
3544;BME280;1786;52.870;9.578;2022-10-29T06:14:38;101130.28;;;27.15;47.51
3544;BME280;1786;52.870;9.578;2022-10-29T06:17:04;101132.09;;;27.08;47.86
3544;BME280;1786;52.870;9.578;2022-10-29T06:19:31;101144.81;;;27.08;48.06
3544;BME280;1786;52.870;9.578;2022-10-29T06:21:58;101142.47;;;27.19;48.17
3544;BME280;1786;52.870;9.578;2022-10-29T06:24:26;101148.72;;;27.41;48.27
3544;BME280;1786;52.870;9.578;2022-10-29T06:26:53;101150.34;;;27.57;48.62
3544;BME280;1786;52.870;9.578;2022-10-29T06:29:20;101136.38;;;27.60;48.67
3544;BME280;1786;52.870;9.578;2022-10-29T06:31:46;101144.28;;;27.34;49.99
3544;BME280;1786;52.870;9.578;2022-10-29T06:34:13;101144.66;;;27.31;51.05
3544;BME280;1786;52.870;9.578;2022-10-29T06:36:40;101142.06;;;27.66;50.15
3544;BME280;1786;52.870;9.578;2022-10-29T06:39:06;101149.94;;;27.82;50.45
3544;BME280;1786;52.870;9.578;2022-10-29T06:41:33;101147.84;;;28.05;50.13
3544;BME280;1786;52.870;9.578;2022-10-29T06:44:00;101144.19;;;28.26;50.04
3544;BME280;1786;52.870;9.578;2022-10-29T06:46:27;101150.69;;;28.25;50.21
3544;BME280;1786;52.870;9.578;2022-10-29T06:48:53;101153.69;;;28.02;50.20
3544;BME280;1786;52.870;9.578;2022-10-29T06:51:20;101148.25;;;28.09;50.51
3544;BME280;1786;52.870;9.578;2022-10-29T06:53:53;101137.25;;;27.89;51.15
3544;BME280;1786;52.870;9.578;2022-10-29T06:56:20;101133.53;;;27.90;51.42
3544;BME280;1786;52.870;9.578;2022-10-29T06:58:48;101140.41;;;27.65;51.86
3544;BME280;1786;52.870;9.578;2022-10-29T07:01:15;101131.00;;;28.23;50.64
3544;BME280;1786;52.870;9.578;2022-10-29T07:03:41;101129.19;;;28.37;50.39
3544;BME280;1786;52.870;9.578;2022-10-29T07:06:08;101129.13;;;28.24;49.60
3544;BME280;1786;52.870;9.578;2022-10-29T07:08:34;101125.66;;;28.85;48.77
3544;BME280;1786;52.870;9.578;2022-10-29T07:11:01;101130.59;;;29.29;48.17
3544;BME280;1786;52.870;9.578;2022-10-29T07:13:28;101132.09;;;29.52;47.60
3544;BME280;1786;52.870;9.578;2022-10-29T07:15:55;101124.72;;;29.06;47.53
3544;BME280;1786;52.870;9.578;2022-10-29T07:18:21;101132.00;;;28.99;47.42
3544;BME280;1786;52.870;9.578;2022-10-29T07:20:48;101137.44;;;28.99;47.37
3544;BME280;1786;52.870;9.578;2022-10-29T07:23:15;101146.72;;;29.11;47.06
3544;BME280;1786;52.870;9.578;2022-10-29T07:25:42;101147.38;;;29.26;47.29
3544;BME280;1786;52.870;9.578;2022-10-29T07:30:38;101148.81;;;29.22;46.89
3544;BME280;1786;52.870;9.578;2022-10-29T07:33:05;101148.78;;;29.09;47.11
3544;BME280;1786;52.870;9.578;2022-10-29T07:35:33;101154.22;;;29.09;47.29
3544;BME280;1786;52.870;9.578;2022-10-29T07:38:01;101164.84;;;28.90;47.17
3544;BME280;1786;52.870;9.578;2022-10-29T07:40:39;101167.28;;;29.33;47.15
3544;BME280;1786;52.870;9.578;2022-10-29T07:43:07;101166.91;;;29.83;46.13
3544;BME280;1786;52.870;9.578;2022-10-29T07:45:34;101159.34;;;30.05;46.31
3544;BME280;1786;52.870;9.578;2022-10-29T07:48:03;101160.41;;;30.24;46.36
3544;BME280;1786;52.870;9.578;2022-10-29T07:50:30;101163.91;;;30.38;46.78
3544;BME280;1786;52.870;9.578;2022-10-29T07:52:58;101163.31;;;30.29;49.39
3544;BME280;1786;52.870;9.578;2022-10-29T07:55:26;101160.84;;;30.79;48.93
3544;BME280;1786;52.870;9.578;2022-10-29T07:58:01;101160.91;;;32.00;45.06
3544;BME280;1786;52.870;9.578;2022-10-29T08:00:29;101172.91;;;32.91;43.67
3544;BME280;1786;52.870;9.578;2022-10-29T08:02:56;101177.66;;;33.32;42.95
3544;BME280;1786;52.870;9.578;2022-10-29T08:05:24;101176.00;;;33.43;42.43
3544;BME280;1786;52.870;9.578;2022-10-29T08:07:52;101161.66;;;32.69;42.72
3544;BME280;1786;52.870;9.578;2022-10-29T08:10:21;101163.94;;;32.53;43.36
3544;BME280;1786;52.870;9.578;2022-10-29T08:12:49;101156.31;;;32.37;43.61
3544;BME280;1786;52.870;9.578;2022-10-29T08:15:17;101154.34;;;32.44;43.40
3544;BME280;1786;52.870;9.578;2022-10-29T08:17:45;101151.13;;;32.47;44.18
3544;BME280;1786;52.870;9.578;2022-10-29T08:20:13;101147.84;;;32.94;43.16
3544;BME280;1786;52.870;9.578;2022-10-29T08:22:39;101151.44;;;33.90;42.56
3544;BME280;1786;52.870;9.578;2022-10-29T08:25:07;101158.78;;;34.89;41.26
3544;BME280;1786;52.870;9.578;2022-10-29T08:27:33;101165.88;;;35.76;39.87
3544;BME280;1786;52.870;9.578;2022-10-29T08:30:00;101168.72;;;36.81;38.98
3544;BME280;1786;52.870;9.578;2022-10-29T08:32:27;101175.63;;;37.65;38.44
3544;BME280;1786;52.870;9.578;2022-10-29T08:34:53;101190.38;;;38.18;37.33
3544;BME280;1786;52.870;9.578;2022-10-29T08:37:21;101196.66;;;38.51;37.43
3544;BME280;1786;52.870;9.578;2022-10-29T08:39:48;101186.38;;;39.14;36.74
3544;BME280;1786;52.870;9.578;2022-10-29T08:45:16;101198.59;;;39.54;35.84
3544;BME280;1786;52.870;9.578;2022-10-29T08:50:52;101186.34;;;39.04;36.17
3544;BME280;1786;52.870;9.578;2022-10-29T08:53:30;101181.13;;;39.28;36.23
3544;BME280;1786;52.870;9.578;2022-10-29T08:55:59;101175.34;;;39.40;36.69
3544;BME280;1786;52.870;9.578;2022-10-29T09:00:56;101195.06;;;40.60;35.27
3544;BME280;1786;52.870;9.578;2022-10-29T09:03:26;101196.25;;;41.08;35.07
3544;BME280;1786;52.870;9.578;2022-10-29T09:06:04;101194.41;;;41.72;34.40
3544;BME280;1786;52.870;9.578;2022-10-29T09:11:30;101192.81;;;42.20;33.90
3544;BME280;1786;52.870;9.578;2022-10-29T09:17:34;101189.84;;;42.40;34.01
3544;BME280;1786;52.870;9.578;2022-10-29T09:20:18;101188.00;;;42.54;33.26
3544;BME280;1786;52.870;9.578;2022-10-29T09:22:57;101189.56;;;42.61;33.11
3544;BME280;1786;52.870;9.578;2022-10-29T09:25:30;101193.28;;;42.75;33.71
3544;BME280;1786;52.870;9.578;2022-10-29T09:30:42;101184.88;;;42.37;32.93
3544;BME280;1786;52.870;9.578;2022-10-29T09:33:19;101175.28;;;40.12;34.98
3544;BME280;1786;52.870;9.578;2022-10-29T09:35:53;101170.94;;;39.34;36.97
3544;BME280;1786;52.870;9.578;2022-10-29T09:38:25;101169.78;;;39.14;36.76
3544;BME280;1786;52.870;9.578;2022-10-29T09:41:00;101170.03;;;39.03;36.98
3544;BME280;1786;52.870;9.578;2022-10-29T09:43:50;101165.06;;;38.94;37.32
3544;BME280;1786;52.870;9.578;2022-10-29T09:46:37;101156.97;;;38.83;36.89
3544;BME280;1786;52.870;9.578;2022-10-29T09:51:54;101147.59;;;37.78;37.89
3544;BME280;1786;52.870;9.578;2022-10-29T09:54:24;101144.19;;;37.34;39.05
3544;BME280;1786;52.870;9.578;2022-10-29T09:56:52;101149.44;;;37.35;38.79
3544;BME280;1786;52.870;9.578;2022-10-29T09:59:58;101137.97;;;37.49;38.60
3544;BME280;1786;52.870;9.578;2022-10-29T10:05:22;101130.31;;;36.69;39.68
3544;BME280;1786;52.870;9.578;2022-10-29T10:08:08;101127.66;;;37.34;39.00
3544;BME280;1786;52.870;9.578;2022-10-29T10:10:48;101126.25;;;37.31;39.03
3544;BME280;1786;52.870;9.578;2022-10-29T10:13:16;101130.50;;;37.81;38.38
3544;BME280;1786;52.870;9.578;2022-10-29T10:15:54;101133.97;;;37.02;38.60
3544;BME280;1786;52.870;9.578;2022-10-29T10:18:27;101130.34;;;37.01;38.96
3544;BME280;1786;52.870;9.578;2022-10-29T10:21:07;101127.41;;;37.67;37.96
3544;BME280;1786;52.870;9.578;2022-10-29T10:23:39;101134.38;;;37.80;37.83
3544;BME280;1786;52.870;9.578;2022-10-29T10:29:09;101115.00;;;38.91;36.73
3544;BME280;1786;52.870;9.578;2022-10-29T10:31:41;101106.53;;;38.40;37.23
3544;BME280;1786;52.870;9.578;2022-10-29T10:34:21;101105.97;;;38.38;37.29
3544;BME280;1786;52.870;9.578;2022-10-29T10:36:53;101105.50;;;38.51;37.53
3544;BME280;1786;52.870;9.578;2022-10-29T10:39:36;101102.31;;;38.90;36.91
3544;BME280;1786;52.870;9.578;2022-10-29T10:42:13;101100.09;;;39.53;36.75
3544;BME280;1786;52.870;9.578;2022-10-29T10:44:48;101098.16;;;39.49;36.59
3544;BME280;1786;52.870;9.578;2022-10-29T10:47:19;101105.63;;;39.79;35.90
3544;BME280;1786;52.870;9.578;2022-10-29T10:49:48;101103.44;;;39.45;35.92
3544;BME280;1786;52.870;9.578;2022-10-29T10:52:18;101093.69;;;38.76;37.46
3544;BME280;1786;52.870;9.578;2022-10-29T10:54:57;101097.84;;;39.76;36.39
3544;BME280;1786;52.870;9.578;2022-10-29T10:57:29;101101.91;;;40.09;35.82
3544;BME280;1786;52.870;9.578;2022-10-29T11:00:02;101103.09;;;39.98;36.10
3544;BME280;1786;52.870;9.578;2022-10-29T11:02:47;101098.41;;;39.73;36.30
3544;BME280;1786;52.870;9.578;2022-10-29T11:05:26;101089.59;;;39.20;37.20
3544;BME280;1786;52.870;9.578;2022-10-29T11:08:04;101084.06;;;39.30;37.05
3544;BME280;1786;52.870;9.578;2022-10-29T11:10:41;101081.56;;;39.18;37.62
3544;BME280;1786;52.870;9.578;2022-10-29T11:13:14;101077.34;;;38.54;38.13
3544;BME280;1786;52.870;9.578;2022-10-29T11:15:59;101066.00;;;38.61;38.17
3544;BME280;1786;52.870;9.578;2022-10-29T11:18:37;101078.16;;;38.44;38.33
3544;BME280;1786;52.870;9.578;2022-10-29T11:21:13;101072.13;;;38.73;37.88
3544;BME280;1786;52.870;9.578;2022-10-29T11:26:33;101054.78;;;38.09;38.67
3544;BME280;1786;52.870;9.578;2022-10-29T11:29:10;101040.63;;;37.91;39.46
3544;BME280;1786;52.870;9.578;2022-10-29T11:31:57;101039.34;;;37.56;39.10
3544;BME280;1786;52.870;9.578;2022-10-29T11:34:41;101040.06;;;37.88;39.19
3544;BME280;1786;52.870;9.578;2022-10-29T11:39:46;101041.72;;;37.95;39.50
3544;BME280;1786;52.870;9.578;2022-10-29T11:42:14;101040.69;;;38.01;39.02
3544;BME280;1786;52.870;9.578;2022-10-29T11:44:41;101031.13;;;37.66;40.29
3544;BME280;1786;52.870;9.578;2022-10-29T11:47:20;101037.28;;;37.83;39.61
3544;BME280;1786;52.870;9.578;2022-10-29T11:52:59;101029.19;;;37.66;39.63
3544;BME280;1786;52.870;9.578;2022-10-29T11:55:55;101023.59;;;37.56;39.88
3544;BME280;1786;52.870;9.578;2022-10-29T11:58:37;101032.69;;;37.52;40.06
3544;BME280;1786;52.870;9.578;2022-10-29T12:04:47;101024.97;;;37.16;40.41
3544;BME280;1786;52.870;9.578;2022-10-29T12:10:11;101023.06;;;36.57;41.38
3544;BME280;1786;52.870;9.578;2022-10-29T12:13:07;101008.19;;;36.58;41.27
3544;BME280;1786;52.870;9.578;2022-10-29T12:18:34;100999.53;;;36.50;41.72
3544;BME280;1786;52.870;9.578;2022-10-29T12:24:04;101000.69;;;36.81;41.81
3544;BME280;1786;52.870;9.578;2022-10-29T12:30:23;100997.47;;;35.91;42.04
3544;BME280;1786;52.870;9.578;2022-10-29T12:32:36;100996.28;;;35.82;42.22
3544;BME280;1786;52.870;9.578;2022-10-29T12:35:41;100985.63;;;35.90;42.65
3544;BME280;1786;52.870;9.578;2022-10-29T12:41:16;100976.63;;;35.34;42.94
3544;BME280;1786;52.870;9.578;2022-10-29T12:43:44;100966.91;;;35.87;41.89
3544;BME280;1786;52.870;9.578;2022-10-29T12:46:32;100976.91;;;35.98;41.87
3544;BME280;1786;52.870;9.578;2022-10-29T12:49:26;100973.78;;;36.93;41.26
3544;BME280;1786;52.870;9.578;2022-10-29T12:52:03;100982.38;;;37.39;40.51
3544;BME280;1786;52.870;9.578;2022-10-29T12:54:38;100976.09;;;37.49;40.10
3544;BME280;1786;52.870;9.578;2022-10-29T12:59:41;100968.53;;;37.29;40.68
3544;BME280;1786;52.870;9.578;2022-10-29T13:15:57;100948.44;;;36.32;41.19
3544;BME280;1786;52.870;9.578;2022-10-29T13:18:40;100956.44;;;36.60;41.48
3544;BME280;1786;52.870;9.578;2022-10-29T13:21:09;100975.13;;;37.23;40.86
3544;BME280;1786;52.870;9.578;2022-10-29T13:23:36;100954.28;;;37.37;40.08
3544;BME280;1786;52.870;9.578;2022-10-29T13:26:05;100958.91;;;37.79;39.92
3544;BME280;1786;52.870;9.578;2022-10-29T13:41:52;100979.44;;;37.99;39.75
3544;BME280;1786;52.870;9.578;2022-10-29T13:44:21;100975.03;;;38.08;39.81
3544;BME280;1786;52.870;9.578;2022-10-29T13:47:10;100973.97;;;38.24;39.52
3544;BME280;1786;52.870;9.578;2022-10-29T13:49:44;100971.97;;;37.99;39.80
3544;BME280;1786;52.870;9.578;2022-10-29T13:52:17;100970.72;;;38.53;39.05
3544;BME280;1786;52.870;9.578;2022-10-29T13:54:57;100966.31;;;38.78;39.25
3544;BME280;1786;52.870;9.578;2022-10-29T14:00:19;100962.47;;;38.99;37.98
3544;BME280;1786;52.870;9.578;2022-10-29T14:03:10;100962.16;;;38.80;38.40
3544;BME280;1786;52.870;9.578;2022-10-29T14:05:52;100952.50;;;38.52;38.78
3544;BME280;1786;52.870;9.578;2022-10-29T14:08:30;100941.09;;;38.18;38.87
3544;BME280;1786;52.870;9.578;2022-10-29T14:11:02;100948.91;;;37.58;39.53
3544;BME280;1786;52.870;9.578;2022-10-29T14:13:51;100946.41;;;37.56;39.73
3544;BME280;1786;52.870;9.578;2022-10-29T14:16:24;100958.94;;;36.62;40.70
3544;BME280;1786;52.870;9.578;2022-10-29T14:18:54;100944.69;;;36.16;41.51
3544;BME280;1786;52.870;9.578;2022-10-29T14:21:29;100935.31;;;35.90;41.47
3544;BME280;1786;52.870;9.578;2022-10-29T14:24:03;100931.00;;;34.99;43.12
3544;BME280;1786;52.870;9.578;2022-10-29T14:26:33;100929.19;;;34.71;43.47
3544;BME280;1786;52.870;9.578;2022-10-29T14:29:20;100932.34;;;34.97;43.27
3544;BME280;1786;52.870;9.578;2022-10-29T14:32:05;100926.53;;;35.10;43.33
3544;BME280;1786;52.870;9.578;2022-10-29T14:34:33;100931.25;;;35.15;43.10
3544;BME280;1786;52.870;9.578;2022-10-29T14:37:39;100921.19;;;35.03;43.64
3544;BME280;1786;52.870;9.578;2022-10-29T14:40:01;100924.78;;;35.43;43.23
3544;BME280;1786;52.870;9.578;2022-10-29T14:42:32;100934.78;;;35.49;42.91
3544;BME280;1786;52.870;9.578;2022-10-29T14:45:02;100929.63;;;35.36;43.00
3544;BME280;1786;52.870;9.578;2022-10-29T14:47:35;100925.50;;;34.99;43.59
3544;BME280;1786;52.870;9.578;2022-10-29T14:50:05;100917.38;;;35.43;42.83
3544;BME280;1786;52.870;9.578;2022-10-29T14:52:43;100917.69;;;35.08;43.28
3544;BME280;1786;52.870;9.578;2022-10-29T14:55:24;100924.47;;;34.55;44.38
3544;BME280;1786;52.870;9.578;2022-10-29T14:58:04;100926.84;;;34.80;43.97
3544;BME280;1786;52.870;9.578;2022-10-29T15:00:34;100918.50;;;34.58;44.16
3544;BME280;1786;52.870;9.578;2022-10-29T15:03:07;100914.75;;;34.30;44.76
3544;BME280;1786;52.870;9.578;2022-10-29T15:05:35;100920.28;;;34.64;44.35
3544;BME280;1786;52.870;9.578;2022-10-29T15:10:30;100909.22;;;35.09;43.22
3544;BME280;1786;52.870;9.578;2022-10-29T15:12:57;100895.31;;;34.99;43.83
3544;BME280;1786;52.870;9.578;2022-10-29T15:15:26;100905.19;;;35.17;43.44
3544;BME280;1786;52.870;9.578;2022-10-29T15:17:58;100898.69;;;35.06;43.61
3544;BME280;1786;52.870;9.578;2022-10-29T15:23:16;100902.91;;;34.75;44.11
3544;BME280;1786;52.870;9.578;2022-10-29T15:25:47;100895.38;;;34.87;43.86
3544;BME280;1786;52.870;9.578;2022-10-29T15:28:22;100896.41;;;34.98;43.58
3544;BME280;1786;52.870;9.578;2022-10-29T15:30:50;100894.47;;;35.38;43.12
3544;BME280;1786;52.870;9.578;2022-10-29T15:33:20;100906.03;;;35.18;43.38
3544;BME280;1786;52.870;9.578;2022-10-29T15:35:51;100909.19;;;35.26;43.18
3544;BME280;1786;52.870;9.578;2022-10-29T15:43:52;100910.91;;;35.71;42.72
3544;BME280;1786;52.870;9.578;2022-10-29T15:46:27;100898.59;;;35.57;43.07